Time;durP1;ratioP1;P1;durP2;ratioP2;P2;SDS_P1;SDS_P2;PMS_P1;PMS_P2;Temp;Humidity;BMP_temperature;BMP_pressure;BME280_temperature;BME280_humidity;BME280_pressure;Samples;Min_cycle;Max_cycle;Signal;HPM_P1;HPM_P2
2022/09/26 00:01:38;;;;;;;1999.90;999.90;;;11.00;99.90;;;;;;5023646;28;20393;-64
2022/09/26 00:04:08;;;;;;;1999.90;999.90;;;11.00;99.90;;;;;;5028362;28;20049;-65
2022/09/26 00:06:34;;;;;;;1999.90;999.90;;;11.00;99.90;;;;;;5030298;28;20053;-65
2022/09/26 00:09:00;;;;;;;1999.90;999.90;;;11.00;99.90;;;;;;5027710;28;20129;-64
2022/09/26 00:11:29;;;;;;;1999.90;999.90;;;11.00;99.90;;;;;;5039722;28;20072;-64
2022/09/26 00:13:57;;;;;;;1999.90;999.90;;;11.00;99.90;;;;;;5023077;28;20038;-65
2022/09/26 00:16:24;;;;;;;1999.90;999.90;;;11.00;99.90;;;;;;5027005;28;20132;-65
2022/09/26 00:18:54;;;;;;;1999.90;999.90;;;11.00;99.90;;;;;;5043155;28;20041;-65
2022/09/26 00:21:21;;;;;;;1999.90;999.90;;;11.00;99.90;;;;;;5022940;28;20033;-65
2022/09/26 00:23:47;;;;;;;1999.90;999.90;;;11.00;99.90;;;;;;5038798;28;20041;-65
2022/09/26 00:26:14;;;;;;;1999.90;999.90;;;11.00;99.90;;;;;;5022136;28;20037;-64
2022/09/26 00:28:40;;;;;;;1999.90;999.90;;;11.00;99.90;;;;;;5029391;28;20820;-64
2022/09/26 00:31:33;;;;;;;1999.90;999.90;;;11.10;99.90;;;;;;5031265;28;20053;-64
2022/09/26 00:33:58;;;;;;;1999.90;999.90;;;11.10;99.90;;;;;;5030930;28;20063;-65
2022/09/26 00:36:25;;;;;;;1999.90;999.90;;;11.10;99.90;;;;;;5022162;28;20038;-65
2022/09/26 00:38:51;;;;;;;1999.90;999.90;;;11.10;99.90;;;;;;5023122;28;20037;-64
2022/09/26 00:41:16;;;;;;;1999.90;999.90;;;11.10;99.90;;;;;;5043983;28;20884;-65
2022/09/26 00:43:51;;;;;;;1999.90;999.90;;;11.20;99.90;;;;;;5030711;28;20077;-65
2022/09/26 00:46:45;;;;;;;1999.90;999.90;;;11.20;99.90;;;;;;5026388;28;20077;-64
2022/09/26 00:49:27;;;;;;;1999.90;999.90;;;11.20;99.90;;;;;;5018603;28;20060;-64
2022/09/26 00:51:58;;;;;;;1999.90;999.90;;;11.20;99.90;;;;;;5015863;28;20452;-65
2022/09/26 00:54:25;;;;;;;1999.90;999.90;;;11.30;99.90;;;;;;5026766;28;20049;-64
2022/09/26 00:56:54;;;;;;;1999.90;999.90;;;11.30;99.90;;;;;;5036652;28;20164;-65
2022/09/26 00:59:27;;;;;;;1999.90;999.90;;;11.30;99.90;;;;;;5024303;28;20124;-64
2022/09/26 01:01:54;;;;;;;;;;;11.30;99.90;;;;;;5026361;28;20049;-64
2022/09/26 01:04:21;;;;;;;1999.90;999.90;;;11.40;99.90;;;;;;5022392;28;19925;-64
2022/09/26 01:06:48;;;;;;;1999.90;999.90;;;11.40;99.90;;;;;;5023272;28;20045;-65
2022/09/26 01:09:15;;;;;;;1999.90;999.90;;;11.40;99.90;;;;;;5016420;28;20064;-64
2022/09/26 01:11:42;;;;;;;1999.90;999.90;;;11.40;99.90;;;;;;5038736;28;20037;-64
2022/09/26 01:14:09;;;;;;;1999.90;999.90;;;11.40;99.90;;;;;;5030805;28;20057;-64
2022/09/26 01:16:37;;;;;;;1999.90;999.90;;;11.40;99.90;;;;;;5024689;28;20085;-65
2022/09/26 01:19:27;;;;;;;1999.90;999.90;;;11.40;99.90;;;;;;5014129;28;20042;-64
2022/09/26 01:22:20;;;;;;;1999.90;999.90;;;11.40;99.90;;;;;;5014720;28;20053;-65
2022/09/26 01:25:25;;;;;;;1999.90;999.90;;;11.50;99.90;;;;;;5014789;28;20042;-64
2022/09/26 01:28:08;;;;;;;1999.90;999.90;;;11.40;99.90;;;;;;4963836;28;20082;-65
2022/09/26 01:30:47;;;;;;;1999.90;999.90;;;11.50;99.90;;;;;;4965836;28;20509;-64
2022/09/26 01:33:42;;;;;;;1999.90;999.90;;;11.40;99.90;;;;;;4970106;28;20085;-64
2022/09/26 01:36:32;;;;;;;1999.90;999.90;;;11.40;99.90;;;;;;4982887;28;20746;-64
2022/09/26 01:39:12;;;;;;;1999.90;999.90;;;11.40;99.90;;;;;;4981490;28;20130;-64
2022/09/26 01:42:03;;;;;;;1999.90;999.90;;;11.40;99.90;;;;;;4984457;28;20142;-65
2022/09/26 01:44:46;;;;;;;1999.90;999.90;;;11.40;99.90;;;;;;4977745;28;20085;-65
2022/09/26 01:47:30;;;;;;;;;;;11.40;99.90;;;;;;4978451;28;20144;-64
2022/09/26 01:50:26;;;;;;;1999.90;999.90;;;11.40;99.90;;;;;;4961828;28;19922;-64
2022/09/26 01:53:02;;;;;;;1999.90;999.90;;;11.40;99.90;;;;;;4961614;28;20422;-64
2022/09/26 01:55:37;;;;;;;1999.90;999.90;;;11.40;99.90;;;;;;4984216;28;20050;-65
2022/09/26 01:58:05;;;;;;;1999.90;999.90;;;11.40;99.90;;;;;;4981683;28;20051;-64
2022/09/26 02:00:33;;;;;;;1999.90;999.90;;;11.40;99.90;;;;;;4958446;28;20070;-64
2022/09/26 02:03:00;;;;;;;1999.90;999.90;;;11.40;99.90;;;;;;4958596;28;20125;-64
2022/09/26 02:05:37;;;;;;;1999.90;999.90;;;11.40;99.90;;;;;;5010797;28;20053;-64
2022/09/26 02:08:35;;;;;;;1999.90;999.90;;;11.40;99.90;;;;;;5032758;28;20511;-64
2022/09/26 02:11:11;;;;;;;1999.90;999.90;;;11.40;99.90;;;;;;5020963;28;20132;-64
2022/09/26 02:13:55;;;;;;;1999.90;999.90;;;11.30;99.90;;;;;;5030504;28;20553;-64
2022/09/26 02:16:27;;;;;;;1999.90;999.90;;;11.30;99.90;;;;;;5025801;28;20046;-64
2022/09/26 02:19:09;;;;;;;1999.90;999.90;;;11.30;99.90;;;;;;5024729;28;20051;-64
2022/09/26 02:21:35;;;;;;;1999.90;999.90;;;11.30;99.90;;;;;;5018874;28;20056;-63
2022/09/26 02:24:01;;;;;;;1999.90;999.90;;;11.20;99.90;;;;;;5018815;28;20046;-64
2022/09/26 02:26:28;;;;;;;1999.90;999.90;;;11.20;99.90;;;;;;5016771;28;20053;-64
2022/09/26 02:28:54;;;;;;;1999.90;999.90;;;11.10;99.90;;;;;;5019445;28;20116;-64
2022/09/26 02:31:24;;;;;;;1999.90;999.90;;;11.10;99.90;;;;;;5018941;28;20076;-64
2022/09/26 02:33:51;;;;;;;1999.90;999.90;;;11.10;99.90;;;;;;5003315;28;20077;-64
2022/09/26 02:36:21;;;;;;;1999.90;999.90;;;11.10;99.90;;;;;;5034282;28;20041;-64
2022/09/26 02:38:46;;;;;;;1999.90;999.90;;;11.00;99.90;;;;;;5029555;28;20044;-64
2022/09/26 02:41:21;;;;;;;1999.90;999.90;;;11.00;99.90;;;;;;5017982;28;20401;-64
2022/09/26 02:44:08;;;;;;;1999.90;999.90;;;11.00;99.90;;;;;;5015236;28;20119;-64
2022/09/26 02:46:55;;;;;;;1999.90;999.90;;;10.90;99.90;;;;;;5009981;28;20057;-64
2022/09/26 02:49:32;;;;;;;1999.90;999.90;;;10.90;99.90;;;;;;5018201;28;20060;-64
2022/09/26 02:52:18;;;;;;;1999.90;999.90;;;10.90;99.90;;;;;;5021304;28;20052;-64
2022/09/26 02:55:13;;;;;;;1999.90;999.90;;;10.90;99.90;;;;;;5026430;28;20128;-64
2022/09/26 02:57:43;;;;;;;1999.90;999.90;;;10.90;99.90;;;;;;4998108;28;20054;-64
2022/09/26 03:00:52;;;;;;;1999.90;999.90;;;10.90;99.90;;;;;;5026020;28;22572;-64
2022/09/26 03:03:22;;;;;;;1999.90;999.90;;;10.90;99.90;;;;;;5007012;28;20124;-64
2022/09/26 03:05:50;;;;;;;1999.90;999.90;;;10.90;99.90;;;;;;5022949;28;20037;-64
2022/09/26 03:08:26;;;;;;;1999.90;999.90;;;10.90;99.90;;;;;;5026556;28;20405;-65
2022/09/26 03:10:55;;;;;;;1999.90;999.90;;;10.90;99.90;;;;;;5023881;28;20187;-64
2022/09/26 03:13:23;;;;;;;1999.90;999.90;;;10.90;99.90;;;;;;5016498;28;20049;-64
2022/09/26 03:15:53;;;;;;;1999.90;999.90;;;10.90;99.90;;;;;;5028240;28;20052;-64
2022/09/26 03:18:23;;;;;;;1999.90;999.90;;;10.90;99.90;;;;;;5015479;28;20076;-64
2022/09/26 03:20:52;;;;;;;1999.90;999.90;;;10.90;99.90;;;;;;5012861;28;20494;-65
2022/09/26 03:23:23;;;;;;;1999.90;999.90;;;11.00;99.90;;;;;;5029814;28;20402;-64
2022/09/26 03:25:59;;;;;;;1999.90;999.90;;;10.90;99.90;;;;;;5030082;28;20077;-64
2022/09/26 03:28:25;;;;;;;1999.90;999.90;;;11.00;99.90;;;;;;5025112;28;20053;-64
2022/09/26 03:30:50;;;;;;;1999.90;999.90;;;11.00;99.90;;;;;;5007070;28;20059;-64
2022/09/26 03:33:16;;;;;;;1999.90;999.90;;;11.00;99.90;;;;;;5022579;28;20053;-64
2022/09/26 03:35:41;;;;;;;1999.90;999.90;;;11.00;99.90;;;;;;5024163;28;20041;-64
2022/09/26 03:38:07;;;;;;;1999.90;999.90;;;11.00;99.90;;;;;;5022042;28;20040;-64
2022/09/26 03:40:32;;;;;;;1999.90;999.90;;;11.00;99.90;;;;;;5033937;28;20803;-64
2022/09/26 03:42:58;;;;;;;1999.90;999.90;;;11.00;99.90;;;;;;5029941;28;20474;-64
2022/09/26 03:45:23;;;;;;;1999.90;999.90;;;10.90;99.90;;;;;;5013037;28;20060;-64
2022/09/26 03:47:56;;;;;;;1999.90;999.90;;;10.90;99.90;;;;;;5025746;28;20041;-64
2022/09/26 03:50:22;;;;;;;1999.90;999.90;;;10.90;99.90;;;;;;4991776;28;20615;-64
2022/09/26 03:52:48;;;;;;;1999.90;999.90;;;11.00;99.90;;;;;;5025808;28;20080;-64
2022/09/26 03:55:13;;;;;;;1999.90;999.90;;;10.90;99.90;;;;;;5015094;28;20842;-64
2022/09/26 03:57:39;;;;;;;1999.90;999.90;;;10.90;99.90;;;;;;5011302;28;20060;-64
2022/09/26 04:00:06;;;;;;;1999.90;999.90;;;11.00;99.90;;;;;;5019573;28;20034;-64
2022/09/26 04:02:33;;;;;;;1999.90;999.90;;;10.90;99.90;;;;;;5024808;28;20041;-64
2022/09/26 04:04:58;;;;;;;1999.90;999.90;;;11.00;99.90;;;;;;5028364;28;20051;-64
2022/09/26 04:07:24;;;;;;;1999.90;999.90;;;11.00;99.90;;;;;;5020162;28;20053;-64
2022/09/26 04:09:50;;;;;;;1999.90;999.90;;;11.00;99.90;;;;;;5014589;28;20096;-64
2022/09/26 04:12:16;;;;;;;1999.90;999.90;;;10.90;99.90;;;;;;5024440;28;20045;-64
2022/09/26 04:14:44;;;;;;;1999.90;999.90;;;11.00;99.90;;;;;;5015636;28;20533;-65
2022/09/26 04:17:11;;;;;;;1999.90;999.90;;;11.00;99.90;;;;;;5008885;28;20034;-65
2022/09/26 04:19:37;;;;;;;1999.90;999.90;;;11.00;99.90;;;;;;5024593;28;20038;-65
2022/09/26 04:22:03;;;;;;;1999.90;999.90;;;11.00;99.90;;;;;;5030372;28;20052;-64
2022/09/26 04:24:29;;;;;;;1999.90;999.90;;;11.00;99.90;;;;;;5020652;28;20518;-64
2022/09/26 04:26:54;;;;;;;1999.90;999.90;;;11.00;99.90;;;;;;5029530;28;20048;-64
2022/09/26 04:29:20;;;;;;;1999.90;999.90;;;10.90;99.90;;;;;;5023933;28;20111;-64
2022/09/26 04:31:46;;;;;;;1999.90;999.90;;;10.90;99.90;;;;;;5028058;28;20053;-64
2022/09/26 04:34:12;;;;;;;1999.90;999.90;;;10.90;99.90;;;;;;5028477;28;20405;-64
2022/09/26 04:36:37;;;;;;;1999.90;999.90;;;10.90;99.90;;;;;;5024609;28;20132;-64
2022/09/26 04:39:03;;;;;;;1999.90;999.90;;;11.00;99.90;;;;;;5028832;28;20045;-64
2022/09/26 04:41:30;;;;;;;1999.90;999.90;;;10.90;99.90;;;;;;5016369;28;21229;-64
2022/09/26 04:43:57;;;;;;;1999.90;999.90;;;10.90;99.90;;;;;;5022035;28;20045;-64
2022/09/26 04:46:24;;;;;;;1999.90;999.90;;;10.90;99.90;;;;;;5031212;28;20045;-65
2022/09/26 04:48:51;;;;;;;1999.90;999.90;;;10.90;99.90;;;;;;5035013;28;20052;-64
2022/09/26 04:51:18;;;;;;;1999.90;999.90;;;10.90;99.90;;;;;;5021737;28;20038;-64
2022/09/26 04:53:45;;;;;;;1999.90;999.90;;;10.90;99.90;;;;;;5025289;28;20041;-65
2022/09/26 04:56:12;;;;;;;1999.90;999.90;;;10.90;99.90;;;;;;5043498;28;20106;-65
2022/09/26 04:58:40;;;;;;;1999.90;999.90;;;10.90;99.90;;;;;;5024368;28;20080;-64
2022/09/26 05:01:11;;;;;;;1999.90;999.90;;;10.90;99.90;;;;;;5028786;28;20495;-65
2022/09/26 05:03:37;;;;;;;1999.90;999.90;;;10.90;99.90;;;;;;5026241;28;20456;-64
2022/09/26 05:06:06;;;;;;;1999.90;999.90;;;10.90;99.90;;;;;;5030279;28;20426;-65
2022/09/26 05:08:32;;;;;;;1999.90;999.90;;;10.90;99.90;;;;;;5017491;28;20101;-65
2022/09/26 05:10:57;;;;;;;1999.90;999.90;;;10.90;99.90;;;;;;5028923;28;20037;-65
2022/09/26 05:13:24;;;;;;;1999.90;999.90;;;10.80;99.90;;;;;;5023493;28;20123;-65
2022/09/26 05:15:54;;;;;;;1999.90;999.90;;;10.80;99.90;;;;;;5014568;28;20045;-65
2022/09/26 05:18:22;;;;;;;1999.90;999.90;;;10.90;99.90;;;;;;5021257;28;20064;-65
2022/09/26 05:20:49;;;;;;;1999.90;999.90;;;10.80;99.90;;;;;;5010842;28;20033;-65
2022/09/26 05:26:18;;;;;;;1999.90;999.90;;;10.80;99.90;;;;;;5029875;28;20041;-65
2022/09/26 05:26:19;;;;;;;1999.90;999.90;;;10.80;99.90;;;;;;5013196;28;20775;-64
2022/09/26 05:28:55;;;;;;;1999.90;999.90;;;10.80;99.90;;;;;;5021566;28;20446;-65
2022/09/26 05:31:25;;;;;;;1999.90;999.90;;;10.80;99.90;;;;;;5027447;28;20084;-65
2022/09/26 05:33:50;;;;;;;1999.90;999.90;;;10.80;99.90;;;;;;5027053;28;20045;-65
2022/09/26 05:36:18;;;;;;;1999.90;999.90;;;10.70;99.90;;;;;;5026367;28;20038;-65
2022/09/26 05:38:44;;;;;;;1999.90;999.90;;;10.70;99.90;;;;;;5027699;28;20413;-65
2022/09/26 05:41:11;;;;;;;1999.90;999.90;;;10.70;99.90;;;;;;5031022;28;20040;-65
2022/09/26 05:43:36;;;;;;;1999.90;999.90;;;10.70;99.90;;;;;;5026772;28;20072;-65
2022/09/26 05:46:05;;;;;;;1999.90;999.90;;;10.70;99.90;;;;;;5027602;28;20037;-65
2022/09/26 05:48:32;;;;;;;1999.90;999.90;;;10.70;99.90;;;;;;5018018;28;20042;-65
2022/09/26 05:51:03;;;;;;;1999.90;999.90;;;10.70;99.90;;;;;;5025782;28;20036;-65
2022/09/26 05:53:30;;;;;;;1999.90;999.90;;;10.70;99.90;;;;;;5025404;28;20117;-65
2022/09/26 05:55:55;;;;;;;1999.90;999.90;;;10.70;99.90;;;;;;5020827;28;20042;-65
2022/09/26 05:58:21;;;;;;;1999.90;999.90;;;10.60;99.90;;;;;;5007792;28;20485;-65
2022/09/26 06:00:47;;;;;;;1999.90;999.90;;;10.70;99.90;;;;;;5021150;28;20045;-65
2022/09/26 06:03:14;;;;;;;1999.90;999.90;;;10.70;99.90;;;;;;5022498;28;20112;-65
2022/09/26 06:05:41;;;;;;;1999.90;999.90;;;10.70;99.90;;;;;;5025794;28;20422;-65
2022/09/26 06:08:08;;;;;;;1999.90;999.90;;;10.60;99.90;;;;;;5026220;28;20721;-64
2022/09/26 06:10:34;;;;;;;1999.90;999.90;;;10.60;99.90;;;;;;5028339;28;20428;-65
2022/09/26 06:13:01;;;;;;;1999.90;999.90;;;10.60;99.90;;;;;;5031288;28;20041;-65
2022/09/26 06:15:28;;;;;;;1999.90;999.90;;;10.60;99.90;;;;;;4996831;28;20045;-65
2022/09/26 06:18:03;;;;;;;1999.90;999.90;;;10.70;99.90;;;;;;5019434;28;20402;-65
2022/09/26 06:20:31;;;;;;;1999.90;999.90;;;10.60;99.90;;;;;;5020934;28;20839;-65
2022/09/26 06:22:57;;;;;;;1999.90;999.90;;;10.60;99.90;;;;;;5013620;28;20390;-65
2022/09/26 06:25:23;;;;;;;1999.90;999.90;;;10.60;99.90;;;;;;5021542;28;20053;-65
2022/09/26 06:27:53;;;;;;;1999.90;999.90;;;10.60;99.90;;;;;;5022628;28;20459;-65
2022/09/26 06:30:20;;;;;;;1999.90;999.90;;;10.60;99.90;;;;;;5018957;28;20450;-65
2022/09/26 06:32:46;;;;;;;1999.90;999.90;;;10.60;99.90;;;;;;5023002;28;20136;-65
2022/09/26 06:35:12;;;;;;;1999.90;999.90;;;10.60;99.90;;;;;;5028309;28;20163;-65
2022/09/26 06:37:38;;;;;;;1999.90;999.90;;;10.60;99.90;;;;;;5023588;28;20069;-65
2022/09/26 06:40:04;;;;;;;1999.90;999.90;;;10.60;99.90;;;;;;5020577;28;20608;-65
2022/09/26 06:42:36;;;;;;;1999.90;999.90;;;10.60;99.90;;;;;;5004001;28;20072;-65
2022/09/26 06:45:07;;;;;;;1999.90;999.90;;;10.60;99.90;;;;;;5016522;28;20052;-65
2022/09/26 06:47:33;;;;;;;1999.90;999.90;;;10.50;99.90;;;;;;4998666;28;20493;-65
2022/09/26 06:49:59;;;;;;;1999.90;999.90;;;10.50;99.90;;;;;;5012588;28;20045;-65
2022/09/26 06:52:25;;;;;;;1999.90;999.90;;;10.50;99.90;;;;;;5020769;28;20037;-65
2022/09/26 06:54:54;;;;;;;1999.90;999.90;;;10.50;99.90;;;;;;5020827;28;20401;-65
2022/09/26 06:57:20;;;;;;;1999.90;999.90;;;10.50;99.90;;;;;;5007192;28;20529;-66
2022/09/26 06:59:45;;;;;;;1999.90;999.90;;;10.50;99.90;;;;;;5019628;28;20041;-66
2022/09/26 07:02:11;;;;;;;1999.90;999.90;;;10.50;99.90;;;;;;4997631;28;20052;-65
2022/09/26 07:04:37;;;;;;;1999.90;999.90;;;10.50;99.90;;;;;;5023859;28;20040;-65
2022/09/26 07:07:03;;;;;;;1999.90;999.90;;;10.50;99.90;;;;;;5021806;28;20130;-65
2022/09/26 07:09:28;;;;;;;1999.90;999.90;;;10.60;99.90;;;;;;5023329;28;20175;-65
2022/09/26 07:11:54;;;;;;;1999.90;999.90;;;10.60;99.90;;;;;;5025242;28;20132;-65
2022/09/26 07:14:22;;;;;;;1999.90;999.90;;;10.60;99.90;;;;;;5009352;28;20046;-65
2022/09/26 07:16:50;;;;;;;1999.90;999.90;;;10.60;99.90;;;;;;5018111;28;20152;-66
2022/09/26 07:19:17;;;;;;;1999.90;999.90;;;10.60;99.90;;;;;;5022307;28;20056;-66
2022/09/26 07:21:43;;;;;;;1999.90;999.90;;;10.60;99.90;;;;;;5025493;28;20048;-66
2022/09/26 07:24:12;;;;;;;1999.90;999.90;;;10.60;99.90;;;;;;5023715;28;20046;-66
2022/09/26 07:26:39;;;;;;;1999.90;999.90;;;10.60;99.90;;;;;;5023742;28;20049;-66
2022/09/26 07:29:05;;;;;;;1999.90;999.90;;;10.60;99.90;;;;;;5009573;28;20107;-65
2022/09/26 07:31:30;;;;;;;1999.90;999.90;;;10.60;99.90;;;;;;5025569;28;20053;-66
2022/09/26 07:33:56;;;;;;;1999.90;999.90;;;10.60;99.90;;;;;;5025367;28;20081;-65
2022/09/26 07:36:22;;;;;;;1999.90;999.90;;;10.60;99.90;;;;;;5024305;28;20498;-66
2022/09/26 07:38:48;;;;;;;1999.90;999.90;;;10.70;99.90;;;;;;5017782;28;20486;-66
2022/09/26 07:41:13;;;;;;;1999.90;999.90;;;10.70;99.90;;;;;;5040232;28;20037;-66
2022/09/26 07:43:39;;;;;;;1999.90;999.90;;;10.80;99.90;;;;;;5022507;28;20049;-65
2022/09/26 07:51:33;;;;;;;1999.90;999.90;;;11.00;99.90;;;;;;5024804;28;20049;-66
2022/09/26 07:53:59;;;;;;;1999.90;999.90;;;11.00;99.90;;;;;;5026137;28;20064;-66
2022/09/26 07:56:24;;;;;;;1999.90;999.90;;;11.10;99.90;;;;;;5011245;28;20478;-66
2022/09/26 07:58:53;;;;;;;1999.90;999.90;;;11.10;99.90;;;;;;5023795;28;20947;-66
2022/09/26 08:01:19;;;;;;;1999.90;999.90;;;11.10;99.90;;;;;;5020843;28;20033;-66
2022/09/26 08:03:48;;;;;;;1999.90;999.90;;;11.20;99.90;;;;;;5027804;28;20371;-66
2022/09/26 08:06:19;;;;;;;1999.90;999.90;;;11.20;99.90;;;;;;5041256;28;20061;-66
2022/09/26 08:08:46;;;;;;;1999.90;999.90;;;11.20;99.90;;;;;;5043611;28;20461;-66
2022/09/26 08:11:17;;;;;;;1999.90;999.90;;;11.20;99.90;;;;;;5019189;28;20044;-66
2022/09/26 08:13:44;;;;;;;1999.90;999.90;;;11.20;99.90;;;;;;5022143;28;20038;-66
2022/09/26 08:16:10;;;;;;;1999.90;999.90;;;11.30;99.90;;;;;;5026842;28;20042;-66
2022/09/26 08:18:36;;;;;;;1999.90;999.90;;;11.30;99.90;;;;;;5021242;28;20091;-66
2022/09/26 08:21:04;;;;;;;1999.90;999.90;;;11.30;99.90;;;;;;5025390;28;20034;-66
2022/09/26 08:23:31;;;;;;;1999.90;999.90;;;11.40;99.90;;;;;;5029985;28;20080;-66
2022/09/26 08:25:57;;;;;;;1999.90;999.90;;;11.40;99.90;;;;;;5028279;28;20046;-66
2022/09/26 08:28:25;;;;;;;1999.90;999.90;;;11.40;99.90;;;;;;5023138;28;20727;-66
2022/09/26 08:30:51;;;;;;;1999.90;999.90;;;11.40;99.90;;;;;;5002808;28;20054;-65
2022/09/26 08:33:17;;;;;;;1999.90;999.90;;;11.40;99.90;;;;;;5017507;28;20478;-66
2022/09/26 08:35:44;;;;;;;1999.90;999.90;;;11.40;99.90;;;;;;5011546;28;20041;-66
2022/09/26 08:38:09;;;;;;;1999.90;999.90;;;11.40;99.90;;;;;;5021832;28;20042;-66
2022/09/26 08:40:54;;;;;;;1999.90;999.90;;;11.40;99.90;;;;;;5033408;28;20041;-66
2022/09/26 08:43:44;;;;;;;1999.90;999.90;;;11.40;99.90;;;;;;5016546;28;20037;-66
2022/09/26 08:49:26;;;;;;;1999.90;999.90;;;11.50;99.90;;;;;;5045975;28;20053;-66
2022/09/26 08:51:55;;;;;;;1999.90;999.90;;;11.50;99.90;;;;;;5009459;28;20045;-66
2022/09/26 08:54:41;;;;;;;1999.90;999.90;;;11.50;99.90;;;;;;5024470;28;20050;-66
2022/09/26 08:57:27;;;;;;;1999.90;999.90;;;11.60;99.90;;;;;;5015872;28;20045;-66
2022/09/26 08:59:53;;;;;;;1999.90;999.90;;;11.70;99.90;;;;;;5040111;28;20782;-67
2022/09/26 09:02:40;;;;;;;1999.90;999.90;;;11.70;99.90;;;;;;5018367;28;20046;-66
2022/09/26 09:05:14;;;;;;;1999.90;999.90;;;11.80;99.90;;;;;;5012984;28;20045;-65
2022/09/26 09:07:40;;;;;;;1999.90;999.90;;;11.80;99.90;;;;;;5024763;28;20029;-66
2022/09/26 09:10:09;;;;;;;1999.90;999.90;;;11.90;99.90;;;;;;5029848;28;20086;-67
2022/09/26 09:12:46;;;;;;;1999.90;999.90;;;11.90;99.90;;;;;;5030219;28;20041;-66
2022/09/26 09:15:25;;;;;;;1999.90;999.90;;;12.00;99.90;;;;;;5026074;28;20413;-66
2022/09/26 09:18:25;;;;;;;1999.90;999.90;;;12.00;99.90;;;;;;5026292;28;20609;-66
2022/09/26 09:21:08;;;;;;;1999.90;999.90;;;12.00;99.90;;;;;;4998185;28;20068;-66
2022/09/26 09:23:40;;;;;;;;;;;12.00;99.90;;;;;;5017101;28;20045;-66
2022/09/26 09:26:30;;;;;;;1999.90;999.90;;;12.00;99.90;;;;;;5027757;28;19925;-66
2022/09/26 09:29:27;;;;;;;1999.90;999.90;;;12.10;99.90;;;;;;5025419;28;20099;-66
2022/09/26 09:31:55;;;;;;;1999.90;999.90;;;12.10;99.90;;;;;;5032650;28;20061;-66
2022/09/26 09:34:27;;;;;;;1999.90;999.90;;;12.10;99.90;;;;;;5021797;28;20104;-66
2022/09/26 09:37:02;;;;;;;1999.90;999.90;;;12.20;99.90;;;;;;5016554;28;20116;-66
2022/09/26 09:39:40;;;;;;;1999.90;999.90;;;12.20;99.90;;;;;;5030828;28;20033;-66
2022/09/26 09:42:16;;;;;;;1999.90;999.90;;;12.10;99.90;;;;;;5033271;28;20045;-67
2022/09/26 09:44:51;;;;;;;1999.90;999.90;;;12.10;99.90;;;;;;5009959;28;20041;-66
2022/09/26 09:47:17;;;;;;;1999.90;999.90;;;12.10;99.90;;;;;;5038155;28;20108;-66
2022/09/26 09:49:46;;;;;;;1999.90;999.90;;;12.10;99.90;;;;;;5030650;28;20048;-66
2022/09/26 09:52:40;;;;;;;1999.90;999.90;;;12.10;99.90;;;;;;5041271;28;20539;-66
2022/09/26 09:55:12;;;;;;;1999.90;999.90;;;12.10;99.90;;;;;;5031133;28;20042;-67
2022/09/26 09:58:03;;;;;;;1999.90;999.90;;;12.00;99.90;;;;;;5022060;28;20464;-66
2022/09/26 10:00:31;;;;;;;1999.90;999.90;;;11.90;99.90;;;;;;5026048;28;20477;-66
2022/09/26 10:03:01;;;;;;;1999.90;999.90;;;11.70;99.90;;;;;;5036790;28;20037;-66
2022/09/26 10:05:33;;;;;;;1999.90;999.90;;;11.70;99.90;;;;;;5019791;28;20913;-66
2022/09/26 10:07:59;;;;;;;1999.90;999.90;;;11.70;99.90;;;;;;5012945;28;20486;-66
2022/09/26 10:10:36;;;;;;;1999.90;999.90;;;11.60;99.90;;;;;;5021922;28;20532;-66
2022/09/26 10:13:03;;;;;;;1999.90;999.90;;;11.70;99.90;;;;;;5021078;28;20409;-66
2022/09/26 10:15:29;;;;;;;1999.90;999.90;;;11.70;99.90;;;;;;5034752;28;20499;-66
2022/09/26 10:18:04;;;;;;;1999.90;999.90;;;11.60;99.90;;;;;;5020786;28;20044;-66
2022/09/26 10:20:41;;;;;;;1999.90;999.90;;;11.60;99.90;;;;;;5037366;28;20033;-66
2022/09/26 10:23:19;;;;;;;1999.90;999.90;;;11.50;99.90;;;;;;5024471;28;20045;-66
2022/09/26 10:25:47;;;;;;;1999.90;999.90;;;11.50;99.90;;;;;;5016411;28;20042;-66
2022/09/26 10:28:28;;;;;;;1999.90;999.90;;;11.50;99.90;;;;;;5017782;28;20501;-67
2022/09/26 10:31:00;;;;;;;1999.90;999.90;;;11.60;99.90;;;;;;5027162;28;20045;-66
2022/09/26 10:33:29;;;;;;;1999.90;999.90;;;11.50;99.90;;;;;;5031552;28;20406;-66
2022/09/26 10:36:05;;;;;;;1999.90;999.90;;;11.50;99.90;;;;;;5019375;28;20053;-66
2022/09/26 10:38:31;;;;;;;1999.90;999.90;;;11.50;99.90;;;;;;5030375;28;20103;-66
2022/09/26 10:41:02;;;;;;;1999.90;999.90;;;11.50;99.90;;;;;;5019189;28;20041;-66
2022/09/26 10:43:36;;;;;;;1999.90;999.90;;;11.50;99.90;;;;;;5022557;28;20492;-66
2022/09/26 10:46:05;;;;;;;1999.90;999.90;;;11.50;99.90;;;;;;5015687;28;20034;-66
2022/09/26 10:48:45;;;;;;;1999.90;999.90;;;11.50;99.90;;;;;;5020701;28;20061;-67
2022/09/26 10:51:21;;;;;;;1999.90;999.90;;;11.50;99.90;;;;;;5003218;28;20049;-67
2022/09/26 10:53:51;;;;;;;1999.90;999.90;;;11.50;99.90;;;;;;5018995;28;20049;-66
2022/09/26 10:56:25;;;;;;;1999.90;999.90;;;11.50;99.90;;;;;;5017212;28;20072;-66
2022/09/26 10:58:58;;;;;;;1999.90;999.90;;;11.50;99.90;;;;;;5023314;28;20037;-66
2022/09/26 11:01:28;;;;;;;1999.90;999.90;;;11.50;99.90;;;;;;5021874;28;20056;-66
2022/09/26 11:04:08;;;;;;;1999.90;999.90;;;11.50;99.90;;;;;;5018599;28;20042;-66
2022/09/26 11:06:39;;;;;;;1999.90;999.90;;;11.40;99.90;;;;;;4999700;28;20051;-66
2022/09/26 11:09:06;;;;;;;1999.90;999.90;;;11.40;99.90;;;;;;5001085;28;20050;-66
2022/09/26 11:11:36;;;;;;;1999.90;999.90;;;11.40;99.90;;;;;;5019539;28;20045;-66
2022/09/26 11:14:06;;;;;;;1999.90;999.90;;;11.40;99.90;;;;;;5017231;28;20072;-66
2022/09/26 11:16:49;;;;;;;1999.90;999.90;;;11.40;99.90;;;;;;5012661;28;20056;-66
2022/09/26 11:19:34;;;;;;;1999.90;999.90;;;11.50;99.90;;;;;;5019014;28;20060;-67
2022/09/26 11:22:00;;;;;;;1999.90;999.90;;;11.50;99.90;;;;;;5022516;28;20068;-66
2022/09/26 11:24:58;;;;;;;1999.90;999.90;;;11.50;99.90;;;;;;5012613;28;20046;-66
2022/09/26 11:27:30;;;;;;;1999.90;999.90;;;11.60;99.90;;;;;;5017480;28;20048;-66
2022/09/26 11:30:13;;;;;;;1999.90;999.90;;;11.60;99.90;;;;;;5018592;28;20575;-66
2022/09/26 11:32:46;;;;;;;1999.90;999.90;;;11.60;99.90;;;;;;5047648;28;20053;-66
2022/09/26 11:35:28;;;;;;;1999.90;999.90;;;11.60;99.90;;;;;;5020229;28;20051;-67
2022/09/26 11:38:25;;;;;;;1999.90;999.90;;;11.60;99.90;;;;;;5032131;28;20045;-67
2022/09/26 11:40:59;;;;;;;1999.90;999.90;;;11.70;99.90;;;;;;5030534;28;20041;-66
2022/09/26 11:43:37;;;;;;;1999.90;999.90;;;11.80;99.90;;;;;;5025797;28;20037;-66
2022/09/26 11:46:45;;;;;;;1999.90;999.90;;;11.80;99.90;;;;;;5023641;28;20072;-67
2022/09/26 11:49:48;;;;;;;1999.90;999.90;;;11.80;99.90;;;;;;5022170;28;20046;-67
2022/09/26 11:52:36;;;;;;;1999.90;999.90;;;11.80;99.90;;;;;;5036008;28;20085;-67
2022/09/26 11:55:34;;;;;;;1999.90;999.90;;;11.80;99.90;;;;;;5041836;28;20045;-66
2022/09/26 11:58:16;;;;;;;1999.90;999.90;;;11.90;99.90;;;;;;5020385;28;20045;-67
2022/09/26 12:01:04;;;;;;;1999.90;999.90;;;11.90;99.90;;;;;;5023653;28;20041;-67
2022/09/26 12:03:54;;;;;;;1999.90;999.90;;;12.00;99.90;;;;;;5025510;28;20041;-67
2022/09/26 12:06:41;;;;;;;1999.90;999.90;;;12.00;99.90;;;;;;5022271;28;20062;-66
2022/09/26 12:09:25;;;;;;;1999.90;999.90;;;12.00;99.90;;;;;;5026437;28;20041;-67
2022/09/26 12:12:27;;;;;;;1999.90;999.90;;;12.00;99.90;;;;;;5026621;28;20425;-67
2022/09/26 12:15:32;;;;;;;1999.90;999.90;;;12.00;99.90;;;;;;4979061;28;20470;-67
2022/09/26 12:18:21;;;;;;;1999.90;999.90;;;12.00;99.90;;;;;;5021258;28;20041;-67
2022/09/26 12:21:14;;;;;;;1999.90;999.90;;;12.00;99.90;;;;;;5008796;28;20045;-68
2022/09/26 12:23:51;;;;;;;1999.90;999.90;;;12.00;99.90;;;;;;5041526;28;20042;-67
2022/09/26 12:26:50;;;;;;;1999.90;999.90;;;12.10;99.90;;;;;;5039255;28;20041;-66
2022/09/26 12:29:30;;;;;;;1999.90;999.90;;;12.10;99.90;;;;;;5026083;28;20033;-66
2022/09/26 12:31:55;;;;;;;1999.90;999.90;;;12.00;99.90;;;;;;5026189;28;20056;-67
2022/09/26 12:35:10;;;;;;;1999.90;999.90;;;12.00;99.90;;;;;;5028694;28;20049;-67
2022/09/26 12:38:14;;;;;;;1999.90;999.90;;;12.00;99.90;;;;;;5006772;28;20061;-66